Hutchins, Vermont
Current Conditions -  °F | °C
As of 11:55 PM on Friday 19 Dec 2014 (Local Time) from KEFK Reporting Station
Clear Clear  
Wind Chill: -12°   Ceiling: Unl
Heat Index: -12°   Visibility: 10mi
Dew Point: -13°   Wind: 0mph
Humidity: 94%   Direction: NA
Pressure: 30.19"   Gusts: NA
Location:  44.8557°N, 72.6016°W
Report Text: KEFK 200455Z AUTO 00000KT 10SM CLR M12/M13 A3019 RMK AO2 T11241132 410331136
Loading
Personal Weather Stations






























Interactive Weather Map New forecast layout! Learn more

10-Day Weather Forecast

Advertisements
Track Severe Weather on mobile